sensor_id;sensor_type;location;lat;lon;timestamp;pressure;altitude;pressure_sealevel;temperature;humidity
41515;BME280;27247;48.020;16.720;2023-05-16T00:00:01;99470.16;;;11.10;100.00
41515;BME280;27247;48.020;16.720;2023-05-16T00:04:11;99462.41;;;11.15;100.00
41515;BME280;27247;48.020;16.720;2023-05-16T00:08:21;99457.97;;;11.23;100.00
41515;BME280;27247;48.020;16.720;2023-05-16T00:12:32;99439.34;;;11.14;100.00
41515;BME280;27247;48.020;16.720;2023-05-16T00:16:43;99449.22;;;11.14;100.00
41515;BME280;27247;48.020;16.720;2023-05-16T00:20:53;99446.16;;;11.17;100.00
41515;BME280;27247;48.020;16.720;2023-05-16T00:25:04;99457.13;;;11.22;100.00
41515;BME280;27247;48.020;16.720;2023-05-16T00:29:14;99441.59;;;11.32;100.00
41515;BME280;27247;48.020;16.720;2023-05-16T00:33:24;99445.94;;;11.33;100.00
41515;BME280;27247;48.020;16.720;2023-05-16T00:37:36;99435.16;;;11.27;100.00
41515;BME280;27247;48.020;16.720;2023-05-16T00:41:46;99444.78;;;11.21;100.00
41515;BME280;27247;48.020;16.720;2023-05-16T00:45:57;99435.22;;;11.33;100.00
41515;BME280;27247;48.020;16.720;2023-05-16T00:50:07;99444.53;;;11.37;100.00
41515;BME280;27247;48.020;16.720;2023-05-16T00:54:21;99443.91;;;11.35;100.00
41515;BME280;27247;48.020;16.720;2023-05-16T00:58:32;99433.50;;;11.26;100.00
41515;BME280;27247;48.020;16.720;2023-05-16T01:02:43;99436.56;;;11.23;100.00
41515;BME280;27247;48.020;16.720;2023-05-16T01:06:55;99433.19;;;11.14;100.00
41515;BME280;27247;48.020;16.720;2023-05-16T01:11:35;99439.31;;;10.93;100.00
41515;BME280;27247;48.020;16.720;2023-05-16T01:16:03;99439.97;;;10.95;100.00
41515;BME280;27247;48.020;16.720;2023-05-16T01:25:04;99446.59;;;10.99;100.00
41515;BME280;27247;48.020;16.720;2023-05-16T01:29:15;99442.44;;;10.97;100.00
41515;BME280;27247;48.020;16.720;2023-05-16T01:33:25;99434.38;;;11.11;100.00
41515;BME280;27247;48.020;16.720;2023-05-16T01:37:55;99423.16;;;11.01;100.00
41515;BME280;27247;48.020;16.720;2023-05-16T01:42:12;99420.69;;;11.00;100.00
41515;BME280;27247;48.020;16.720;2023-05-16T01:46:26;99412.00;;;10.98;100.00
41515;BME280;27247;48.020;16.720;2023-05-16T01:50:44;99399.47;;;10.98;100.00
41515;BME280;27247;48.020;16.720;2023-05-16T01:54:57;99391.31;;;10.85;100.00
41515;BME280;27247;48.020;16.720;2023-05-16T01:59:09;99403.69;;;10.71;100.00
41515;BME280;27247;48.020;16.720;2023-05-16T02:03:21;99415.97;;;10.51;100.00
41515;BME280;27247;48.020;16.720;2023-05-16T02:07:32;99415.22;;;10.57;100.00
41515;BME280;27247;48.020;16.720;2023-05-16T02:11:43;99415.97;;;10.66;100.00
41515;BME280;27247;48.020;16.720;2023-05-16T02:15:53;99430.81;;;10.53;100.00
41515;BME280;27247;48.020;16.720;2023-05-16T02:20:04;99434.03;;;10.49;100.00
41515;BME280;27247;48.020;16.720;2023-05-16T02:24:16;99436.25;;;10.45;100.00
41515;BME280;27247;48.020;16.720;2023-05-16T02:28:26;99435.22;;;10.46;100.00
41515;BME280;27247;48.020;16.720;2023-05-16T02:32:38;99424.81;;;10.66;100.00
41515;BME280;27247;48.020;16.720;2023-05-16T02:36:48;99432.38;;;10.48;100.00
41515;BME280;27247;48.020;16.720;2023-05-16T02:40:59;99413.19;;;10.59;100.00
41515;BME280;27247;48.020;16.720;2023-05-16T02:45:10;99388.50;;;10.57;100.00
41515;BME280;27247;48.020;16.720;2023-05-16T02:49:20;99377.75;;;10.50;100.00
41515;BME280;27247;48.020;16.720;2023-05-16T02:53:30;99360.44;;;10.46;100.00
41515;BME280;27247;48.020;16.720;2023-05-16T02:57:41;99375.63;;;10.46;100.00
41515;BME280;27247;48.020;16.720;2023-05-16T03:01:51;99393.03;;;10.42;100.00
41515;BME280;27247;48.020;16.720;2023-05-16T03:06:02;99387.75;;;10.34;100.00
41515;BME280;27247;48.020;16.720;2023-05-16T03:10:12;99385.22;;;10.40;100.00
41515;BME280;27247;48.020;16.720;2023-05-16T03:14:23;99377.28;;;10.47;100.00
41515;BME280;27247;48.020;16.720;2023-05-16T03:18:33;99377.19;;;10.55;100.00
41515;BME280;27247;48.020;16.720;2023-05-16T03:22:43;99363.34;;;10.66;100.00
41515;BME280;27247;48.020;16.720;2023-05-16T03:26:54;99363.97;;;10.68;100.00
41515;BME280;27247;48.020;16.720;2023-05-16T03:31:05;99365.78;;;10.82;100.00
41515;BME280;27247;48.020;16.720;2023-05-16T03:35:15;99377.91;;;10.64;100.00
41515;BME280;27247;48.020;16.720;2023-05-16T03:39:25;99383.69;;;10.67;100.00
41515;BME280;27247;48.020;16.720;2023-05-16T03:43:36;99385.63;;;10.73;100.00
41515;BME280;27247;48.020;16.720;2023-05-16T03:47:48;99390.69;;;10.68;100.00
41515;BME280;27247;48.020;16.720;2023-05-16T03:51:58;99395.94;;;10.76;100.00
41515;BME280;27247;48.020;16.720;2023-05-16T03:56:08;99404.41;;;10.80;100.00
41515;BME280;27247;48.020;16.720;2023-05-16T04:00:19;99401.94;;;10.78;100.00
41515;BME280;27247;48.020;16.720;2023-05-16T04:04:29;99392.50;;;10.82;100.00
41515;BME280;27247;48.020;16.720;2023-05-16T04:08:39;99374.78;;;10.96;100.00
41515;BME280;27247;48.020;16.720;2023-05-16T04:12:50;99371.91;;;10.98;100.00
41515;BME280;27247;48.020;16.720;2023-05-16T04:17:00;99363.06;;;11.18;100.00
41515;BME280;27247;48.020;16.720;2023-05-16T04:21:11;99368.75;;;11.09;100.00
41515;BME280;27247;48.020;16.720;2023-05-16T04:25:24;99371.03;;;11.12;100.00
41515;BME280;27247;48.020;16.720;2023-05-16T04:29:34;99373.44;;;11.07;100.00
41515;BME280;27247;48.020;16.720;2023-05-16T04:33:45;99393.97;;;10.85;100.00
41515;BME280;27247;48.020;16.720;2023-05-16T04:37:55;99402.00;;;10.85;100.00
41515;BME280;27247;48.020;16.720;2023-05-16T04:42:06;99432.78;;;10.81;100.00
41515;BME280;27247;48.020;16.720;2023-05-16T04:46:16;99444.09;;;10.98;100.00
41515;BME280;27247;48.020;16.720;2023-05-16T04:50:26;99448.09;;;11.23;100.00
41515;BME280;27247;48.020;16.720;2023-05-16T04:54:37;99434.59;;;11.31;100.00
41515;BME280;27247;48.020;16.720;2023-05-16T04:58:48;99419.34;;;11.46;100.00
41515;BME280;27247;48.020;16.720;2023-05-16T05:02:59;99408.63;;;11.68;100.00
41515;BME280;27247;48.020;16.720;2023-05-16T05:07:09;99421.50;;;11.79;100.00
41515;BME280;27247;48.020;16.720;2023-05-16T05:11:19;99436.22;;;11.90;100.00
41515;BME280;27247;48.020;16.720;2023-05-16T05:15:30;99444.94;;;11.98;100.00
41515;BME280;27247;48.020;16.720;2023-05-16T05:19:40;99432.13;;;12.22;100.00
41515;BME280;27247;48.020;16.720;2023-05-16T05:23:51;99426.00;;;12.34;100.00
41515;BME280;27247;48.020;16.720;2023-05-16T05:28:01;99435.91;;;12.34;100.00
41515;BME280;27247;48.020;16.720;2023-05-16T05:32:13;99433.84;;;12.36;100.00
41515;BME280;27247;48.020;16.720;2023-05-16T05:36:23;99441.09;;;12.42;100.00
41515;BME280;27247;48.020;16.720;2023-05-16T05:40:33;99442.47;;;12.59;100.00
41515;BME280;27247;48.020;16.720;2023-05-16T05:44:44;99441.88;;;12.64;100.00
41515;BME280;27247;48.020;16.720;2023-05-16T05:48:54;99450.81;;;12.77;100.00
41515;BME280;27247;48.020;16.720;2023-05-16T05:53:05;99446.50;;;12.83;100.00
41515;BME280;27247;48.020;16.720;2023-05-16T05:57:15;99436.19;;;12.87;100.00
41515;BME280;27247;48.020;16.720;2023-05-16T06:01:26;99429.81;;;12.88;100.00
41515;BME280;27247;48.020;16.720;2023-05-16T06:05:36;99428.75;;;12.82;100.00
41515;BME280;27247;48.020;16.720;2023-05-16T06:09:46;99445.06;;;12.87;100.00
41515;BME280;27247;48.020;16.720;2023-05-16T06:13:57;99440.97;;;12.91;100.00
41515;BME280;27247;48.020;16.720;2023-05-16T06:18:07;99430.88;;;13.00;100.00
41515;BME280;27247;48.020;16.720;2023-05-16T06:22:18;99433.63;;;13.13;100.00
41515;BME280;27247;48.020;16.720;2023-05-16T06:26:28;99432.00;;;13.19;100.00
41515;BME280;27247;48.020;16.720;2023-05-16T06:30:38;99434.72;;;13.32;100.00
41515;BME280;27247;48.020;16.720;2023-05-16T06:34:49;99423.59;;;13.35;100.00
41515;BME280;27247;48.020;16.720;2023-05-16T06:39:00;99422.53;;;13.29;100.00
41515;BME280;27247;48.020;16.720;2023-05-16T06:43:10;99420.03;;;13.21;100.00
41515;BME280;27247;48.020;16.720;2023-05-16T06:47:21;99408.69;;;13.26;100.00
41515;BME280;27247;48.020;16.720;2023-05-16T06:51:31;99395.44;;;13.11;100.00
41515;BME280;27247;48.020;16.720;2023-05-16T06:55:41;99400.59;;;13.13;100.00
41515;BME280;27247;48.020;16.720;2023-05-16T06:59:52;99415.66;;;13.14;100.00
41515;BME280;27247;48.020;16.720;2023-05-16T07:04:02;99413.44;;;13.17;100.00
41515;BME280;27247;48.020;16.720;2023-05-16T07:08:12;99407.03;;;13.18;100.00
41515;BME280;27247;48.020;16.720;2023-05-16T07:12:23;99417.97;;;13.17;100.00
41515;BME280;27247;48.020;16.720;2023-05-16T07:16:33;99418.38;;;13.20;100.00
41515;BME280;27247;48.020;16.720;2023-05-16T07:20:43;99414.88;;;13.20;100.00
41515;BME280;27247;48.020;16.720;2023-05-16T07:24:55;99424.16;;;13.17;100.00
41515;BME280;27247;48.020;16.720;2023-05-16T07:29:09;99427.47;;;13.19;100.00
41515;BME280;27247;48.020;16.720;2023-05-16T07:33:20;99418.59;;;13.25;100.00
41515;BME280;27247;48.020;16.720;2023-05-16T07:37:30;99424.81;;;13.32;100.00
41515;BME280;27247;48.020;16.720;2023-05-16T07:41:40;99439.25;;;13.25;100.00
41515;BME280;27247;48.020;16.720;2023-05-16T07:45:51;99449.56;;;13.21;100.00
41515;BME280;27247;48.020;16.720;2023-05-16T07:50:02;99470.00;;;13.22;100.00
41515;BME280;27247;48.020;16.720;2023-05-16T07:54:12;99471.66;;;13.30;100.00
41515;BME280;27247;48.020;16.720;2023-05-16T07:58:22;99473.09;;;13.26;100.00
41515;BME280;27247;48.020;16.720;2023-05-16T08:02:33;99486.31;;;13.27;100.00
41515;BME280;27247;48.020;16.720;2023-05-16T08:06:43;99485.88;;;13.17;100.00
41515;BME280;27247;48.020;16.720;2023-05-16T08:10:54;99489.59;;;13.23;100.00
41515;BME280;27247;48.020;16.720;2023-05-16T08:15:04;99504.28;;;13.27;100.00
41515;BME280;27247;48.020;16.720;2023-05-16T08:19:15;99521.94;;;13.15;100.00
41515;BME280;27247;48.020;16.720;2023-05-16T08:23:25;99520.78;;;13.24;100.00
41515;BME280;27247;48.020;16.720;2023-05-16T08:27:36;99529.50;;;13.39;100.00
41515;BME280;27247;48.020;16.720;2023-05-16T08:31:47;99511.13;;;13.42;100.00
41515;BME280;27247;48.020;16.720;2023-05-16T08:35:57;99499.16;;;13.45;100.00
41515;BME280;27247;48.020;16.720;2023-05-16T08:40:09;99484.09;;;13.44;100.00
41515;BME280;27247;48.020;16.720;2023-05-16T08:44:20;99468.19;;;13.42;100.00
41515;BME280;27247;48.020;16.720;2023-05-16T08:48:31;99451.44;;;13.34;100.00
41515;BME280;27247;48.020;16.720;2023-05-16T08:52:43;99448.34;;;13.37;100.00
41515;BME280;27247;48.020;16.720;2023-05-16T08:56:54;99437.22;;;13.33;100.00
41515;BME280;27247;48.020;16.720;2023-05-16T09:01:05;99427.09;;;13.35;100.00
41515;BME280;27247;48.020;16.720;2023-05-16T09:05:18;99419.88;;;13.36;100.00
41515;BME280;27247;48.020;16.720;2023-05-16T09:09:28;99410.16;;;13.35;100.00
41515;BME280;27247;48.020;16.720;2023-05-16T09:13:39;99397.56;;;13.35;100.00
41515;BME280;27247;48.020;16.720;2023-05-16T09:17:49;99383.94;;;13.24;100.00
41515;BME280;27247;48.020;16.720;2023-05-16T09:22:01;99392.75;;;13.11;100.00
41515;BME280;27247;48.020;16.720;2023-05-16T09:26:12;99405.31;;;13.04;100.00
41515;BME280;27247;48.020;16.720;2023-05-16T09:30:33;99425.13;;;13.03;100.00
41515;BME280;27247;48.020;16.720;2023-05-16T09:34:45;99439.16;;;13.05;100.00
41515;BME280;27247;48.020;16.720;2023-05-16T09:38:58;99466.63;;;13.14;100.00
41515;BME280;27247;48.020;16.720;2023-05-16T09:43:08;99479.91;;;13.22;100.00
41515;BME280;27247;48.020;16.720;2023-05-16T09:47:19;99480.03;;;13.07;100.00
41515;BME280;27247;48.020;16.720;2023-05-16T09:51:30;99477.31;;;13.00;100.00
41515;BME280;27247;48.020;16.720;2023-05-16T09:55:41;99475.75;;;13.19;100.00
41515;BME280;27247;48.020;16.720;2023-05-16T09:59:51;99477.44;;;13.27;100.00
41515;BME280;27247;48.020;16.720;2023-05-16T10:04:01;99482.63;;;13.41;100.00
41515;BME280;27247;48.020;16.720;2023-05-16T10:08:12;99482.66;;;13.48;100.00
41515;BME280;27247;48.020;16.720;2023-05-16T10:12:27;99485.19;;;13.56;100.00
41515;BME280;27247;48.020;16.720;2023-05-16T10:16:41;99477.53;;;13.53;100.00
41515;BME280;27247;48.020;16.720;2023-05-16T10:20:53;99473.22;;;13.59;100.00
41515;BME280;27247;48.020;16.720;2023-05-16T10:25:14;99462.06;;;13.55;100.00
41515;BME280;27247;48.020;16.720;2023-05-16T10:29:27;99471.50;;;13.51;100.00
41515;BME280;27247;48.020;16.720;2023-05-16T10:33:38;99477.91;;;13.50;100.00
41515;BME280;27247;48.020;16.720;2023-05-16T10:37:50;99474.03;;;13.53;100.00
41515;BME280;27247;48.020;16.720;2023-05-16T10:42:01;99464.13;;;13.53;100.00
41515;BME280;27247;48.020;16.720;2023-05-16T10:46:13;99448.19;;;13.52;100.00
41515;BME280;27247;48.020;16.720;2023-05-16T10:54:49;99447.13;;;13.39;100.00
41515;BME280;27247;48.020;16.720;2023-05-16T10:59:01;99452.50;;;13.39;100.00
41515;BME280;27247;48.020;16.720;2023-05-16T11:03:21;99449.19;;;13.37;100.00
41515;BME280;27247;48.020;16.720;2023-05-16T11:07:35;99454.78;;;13.42;100.00
41515;BME280;27247;48.020;16.720;2023-05-16T11:16:26;99451.66;;;13.39;100.00
41515;BME280;27247;48.020;16.720;2023-05-16T11:20:38;99429.78;;;13.42;100.00
41515;BME280;27247;48.020;16.720;2023-05-16T11:25:03;99419.47;;;13.46;100.00
41515;BME280;27247;48.020;16.720;2023-05-16T11:29:14;99417.41;;;13.41;100.00
41515;BME280;27247;48.020;16.720;2023-05-16T11:33:25;99421.53;;;13.37;100.00
41515;BME280;27247;48.020;16.720;2023-05-16T11:37:37;99407.69;;;13.33;100.00
41515;BME280;27247;48.020;16.720;2023-05-16T11:41:52;99393.03;;;13.29;100.00
41515;BME280;27247;48.020;16.720;2023-05-16T11:46:03;99412.19;;;13.20;100.00
41515;BME280;27247;48.020;16.720;2023-05-16T11:50:21;99406.78;;;13.13;100.00
41515;BME280;27247;48.020;16.720;2023-05-16T11:54:33;99412.97;;;13.07;100.00
41515;BME280;27247;48.020;16.720;2023-05-16T11:58:43;99414.00;;;13.13;100.00
41515;BME280;27247;48.020;16.720;2023-05-16T12:03:00;99410.69;;;13.10;100.00
41515;BME280;27247;48.020;16.720;2023-05-16T12:07:12;99398.31;;;13.16;100.00
41515;BME280;27247;48.020;16.720;2023-05-16T12:11:22;99392.19;;;13.29;100.00
41515;BME280;27247;48.020;16.720;2023-05-16T12:15:33;99364.13;;;13.31;100.00
41515;BME280;27247;48.020;16.720;2023-05-16T12:19:43;99367.63;;;13.25;100.00
41515;BME280;27247;48.020;16.720;2023-05-16T12:23:55;99365.75;;;13.19;100.00
41515;BME280;27247;48.020;16.720;2023-05-16T12:28:11;99371.13;;;13.19;100.00
41515;BME280;27247;48.020;16.720;2023-05-16T12:32:22;99364.69;;;13.14;100.00
41515;BME280;27247;48.020;16.720;2023-05-16T12:36:33;99357.09;;;13.17;100.00
41515;BME280;27247;48.020;16.720;2023-05-16T12:40:45;99346.13;;;13.12;100.00
41515;BME280;27247;48.020;16.720;2023-05-16T12:44:55;99346.53;;;13.09;100.00
41515;BME280;27247;48.020;16.720;2023-05-16T12:49:06;99336.19;;;12.99;100.00
41515;BME280;27247;48.020;16.720;2023-05-16T12:53:17;99323.59;;;13.00;100.00
41515;BME280;27247;48.020;16.720;2023-05-16T12:57:28;99315.75;;;12.98;100.00
41515;BME280;27247;48.020;16.720;2023-05-16T13:01:38;99318.25;;;13.00;100.00
41515;BME280;27247;48.020;16.720;2023-05-16T13:05:49;99303.59;;;13.02;100.00
41515;BME280;27247;48.020;16.720;2023-05-16T13:10:00;99312.06;;;13.06;100.00
41515;BME280;27247;48.020;16.720;2023-05-16T13:14:11;99304.00;;;12.99;100.00
41515;BME280;27247;48.020;16.720;2023-05-16T13:18:21;99299.06;;;13.09;100.00
41515;BME280;27247;48.020;16.720;2023-05-16T13:22:32;99307.31;;;13.15;100.00
41515;BME280;27247;48.020;16.720;2023-05-16T13:26:43;99315.59;;;13.20;100.00
41515;BME280;27247;48.020;16.720;2023-05-16T13:30:54;99307.16;;;13.29;100.00
41515;BME280;27247;48.020;16.720;2023-05-16T13:35:04;99296.00;;;13.32;100.00
41515;BME280;27247;48.020;16.720;2023-05-16T13:39:15;99304.47;;;13.36;100.00
41515;BME280;27247;48.020;16.720;2023-05-16T13:43:25;99303.22;;;13.38;100.00
41515;BME280;27247;48.020;16.720;2023-05-16T13:47:36;99305.69;;;13.40;100.00
41515;BME280;27247;48.020;16.720;2023-05-16T13:51:46;99312.31;;;13.37;100.00
41515;BME280;27247;48.020;16.720;2023-05-16T13:55:57;99325.31;;;13.34;100.00
41515;BME280;27247;48.020;16.720;2023-05-16T14:00:07;99312.94;;;13.39;100.00
41515;BME280;27247;48.020;16.720;2023-05-16T14:04:21;99301.97;;;13.48;100.00
41515;BME280;27247;48.020;16.720;2023-05-16T14:08:32;99283.00;;;13.56;100.00
41515;BME280;27247;48.020;16.720;2023-05-16T14:12:42;99276.81;;;13.55;100.00
41515;BME280;27247;48.020;16.720;2023-05-16T14:16:53;99276.00;;;13.55;100.00
41515;BME280;27247;48.020;16.720;2023-05-16T14:21:03;99273.69;;;13.45;100.00
41515;BME280;27247;48.020;16.720;2023-05-16T14:25:14;99271.25;;;13.57;100.00
41515;BME280;27247;48.020;16.720;2023-05-16T14:29:24;99248.13;;;13.56;100.00
41515;BME280;27247;48.020;16.720;2023-05-16T14:33:35;99258.03;;;13.55;100.00
41515;BME280;27247;48.020;16.720;2023-05-16T14:37:45;99247.69;;;13.46;100.00
41515;BME280;27247;48.020;16.720;2023-05-16T14:41:55;99259.66;;;13.50;100.00
41515;BME280;27247;48.020;16.720;2023-05-16T14:46:06;99252.84;;;13.47;100.00
41515;BME280;27247;48.020;16.720;2023-05-16T14:50:16;99253.25;;;13.51;100.00
41515;BME280;27247;48.020;16.720;2023-05-16T14:54:26;99259.47;;;13.58;100.00
41515;BME280;27247;48.020;16.720;2023-05-16T14:58:37;99251.81;;;13.61;100.00
41515;BME280;27247;48.020;16.720;2023-05-16T15:02:47;99267.31;;;13.66;100.00
41515;BME280;27247;48.020;16.720;2023-05-16T15:06:57;99264.38;;;13.74;100.00
41515;BME280;27247;48.020;16.720;2023-05-16T15:11:08;99267.28;;;13.79;100.00
41515;BME280;27247;48.020;16.720;2023-05-16T15:15:18;99260.88;;;13.80;100.00
41515;BME280;27247;48.020;16.720;2023-05-16T15:19:28;99262.09;;;13.78;100.00
41515;BME280;27247;48.020;16.720;2023-05-16T15:23:39;99247.84;;;13.84;100.00
41515;BME280;27247;48.020;16.720;2023-05-16T15:27:49;99243.09;;;13.79;100.00
41515;BME280;27247;48.020;16.720;2023-05-16T15:32:03;99236.06;;;13.78;100.00
41515;BME280;27247;48.020;16.720;2023-05-16T15:36:13;99241.66;;;13.77;100.00
41515;BME280;27247;48.020;16.720;2023-05-16T15:40:24;99228.69;;;13.67;100.00
41515;BME280;27247;48.020;16.720;2023-05-16T15:44:35;99239.41;;;13.67;100.00
41515;BME280;27247;48.020;16.720;2023-05-16T15:48:45;99233.22;;;13.60;100.00
41515;BME280;27247;48.020;16.720;2023-05-16T15:52:56;99232.41;;;13.66;100.00
41515;BME280;27247;48.020;16.720;2023-05-16T15:57:07;99223.50;;;13.65;100.00
41515;BME280;27247;48.020;16.720;2023-05-16T16:01:17;99222.47;;;13.66;100.00
41515;BME280;27247;48.020;16.720;2023-05-16T16:05:28;99204.31;;;13.62;100.00
41515;BME280;27247;48.020;16.720;2023-05-16T16:09:38;99205.97;;;13.56;100.00
41515;BME280;27247;48.020;16.720;2023-05-16T16:13:48;99200.81;;;13.48;100.00
41515;BME280;27247;48.020;16.720;2023-05-16T16:17:59;99192.78;;;13.35;100.00
41515;BME280;27247;48.020;16.720;2023-05-16T16:22:10;99193.84;;;13.27;100.00
41515;BME280;27247;48.020;16.720;2023-05-16T16:26:20;99204.16;;;13.24;100.00
41515;BME280;27247;48.020;16.720;2023-05-16T16:30:31;99197.56;;;13.20;100.00
41515;BME280;27247;48.020;16.720;2023-05-16T16:34:42;99196.13;;;13.17;100.00
41515;BME280;27247;48.020;16.720;2023-05-16T16:38:52;99189.69;;;13.11;100.00
41515;BME280;27247;48.020;16.720;2023-05-16T16:43:02;99185.78;;;13.14;100.00
41515;BME280;27247;48.020;16.720;2023-05-16T16:47:16;99192.38;;;13.11;100.00
41515;BME280;27247;48.020;16.720;2023-05-16T16:51:27;99191.34;;;13.06;100.00
41515;BME280;27247;48.020;16.720;2023-05-16T16:55:38;99188.66;;;12.99;100.00
41515;BME280;27247;48.020;16.720;2023-05-16T16:59:48;99198.38;;;12.94;100.00
41515;BME280;27247;48.020;16.720;2023-05-16T17:03:59;99208.28;;;13.00;100.00
41515;BME280;27247;48.020;16.720;2023-05-16T17:08:11;99217.56;;;12.91;100.00
41515;BME280;27247;48.020;16.720;2023-05-16T17:12:21;99211.78;;;12.94;100.00
41515;BME280;27247;48.020;16.720;2023-05-16T17:16:32;99199.81;;;12.96;100.00
41515;BME280;27247;48.020;16.720;2023-05-16T17:20:42;99205.78;;;12.92;100.00
41515;BME280;27247;48.020;16.720;2023-05-16T17:24:53;99199.19;;;12.94;100.00
41515;BME280;27247;48.020;16.720;2023-05-16T17:29:03;99198.56;;;12.92;100.00
41515;BME280;27247;48.020;16.720;2023-05-16T17:33:14;99197.75;;;12.92;100.00
41515;BME280;27247;48.020;16.720;2023-05-16T17:37:25;99211.38;;;12.90;100.00
41515;BME280;27247;48.020;16.720;2023-05-16T17:41:36;99204.97;;;12.91;100.00
41515;BME280;27247;48.020;16.720;2023-05-16T17:45:46;99210.34;;;12.91;100.00
41515;BME280;27247;48.020;16.720;2023-05-16T17:49:58;99208.88;;;12.89;100.00
41515;BME280;27247;48.020;16.720;2023-05-16T17:54:08;99200.44;;;12.78;100.00
41515;BME280;27247;48.020;16.720;2023-05-16T17:58:22;99194.22;;;12.71;100.00
41515;BME280;27247;48.020;16.720;2023-05-16T18:02:33;99197.13;;;12.63;100.00
41515;BME280;27247;48.020;16.720;2023-05-16T18:06:43;99192.78;;;12.62;100.00
41515;BME280;27247;48.020;16.720;2023-05-16T18:10:55;99199.16;;;12.61;100.00
41515;BME280;27247;48.020;16.720;2023-05-16T18:15:06;99200.63;;;12.64;100.00
41515;BME280;27247;48.020;16.720;2023-05-16T18:19:18;99196.91;;;12.65;100.00
41515;BME280;27247;48.020;16.720;2023-05-16T18:23:28;99196.50;;;12.68;100.00
41515;BME280;27247;48.020;16.720;2023-05-16T18:27:40;99201.25;;;12.72;100.00
41515;BME280;27247;48.020;16.720;2023-05-16T18:31:51;99200.00;;;12.68;100.00
41515;BME280;27247;48.020;16.720;2023-05-16T18:36:02;99204.53;;;12.68;100.00
41515;BME280;27247;48.020;16.720;2023-05-16T18:40:13;99198.16;;;12.62;100.00
41515;BME280;27247;48.020;16.720;2023-05-16T18:44:24;99208.03;;;12.62;100.00
41515;BME280;27247;48.020;16.720;2023-05-16T18:48:34;99219.59;;;12.62;100.00
41515;BME280;27247;48.020;16.720;2023-05-16T18:52:45;99225.97;;;12.61;100.00
41515;BME280;27247;48.020;16.720;2023-05-16T18:56:56;99219.78;;;12.54;100.00
41515;BME280;27247;48.020;16.720;2023-05-16T19:01:06;99236.06;;;12.59;100.00
41515;BME280;27247;48.020;16.720;2023-05-16T19:05:17;99255.44;;;12.55;100.00
41515;BME280;27247;48.020;16.720;2023-05-16T19:09:28;99258.34;;;12.60;100.00
41515;BME280;27247;48.020;16.720;2023-05-16T19:13:39;99257.72;;;12.58;100.00
41515;BME280;27247;48.020;16.720;2023-05-16T19:17:49;99260.41;;;12.58;100.00
41515;BME280;27247;48.020;16.720;2023-05-16T19:22:00;99260.81;;;12.55;100.00
41515;BME280;27247;48.020;16.720;2023-05-16T19:26:10;99263.69;;;12.53;100.00
41515;BME280;27247;48.020;16.720;2023-05-16T19:30:21;99264.09;;;12.50;100.00
41515;BME280;27247;48.020;16.720;2023-05-16T19:34:32;99264.91;;;12.51;100.00
41515;BME280;27247;48.020;16.720;2023-05-16T19:38:43;99255.41;;;12.48;100.00
41515;BME280;27247;48.020;16.720;2023-05-16T19:42:53;99246.75;;;12.46;100.00
41515;BME280;27247;48.020;16.720;2023-05-16T19:47:04;99243.41;;;12.37;100.00
41515;BME280;27247;48.020;16.720;2023-05-16T19:51:14;99239.50;;;12.33;100.00
41515;BME280;27247;48.020;16.720;2023-05-16T19:55:25;99244.41;;;12.30;100.00
41515;BME280;27247;48.020;16.720;2023-05-16T19:59:37;99239.06;;;12.30;100.00
41515;BME280;27247;48.020;16.720;2023-05-16T20:03:47;99235.34;;;12.31;100.00
41515;BME280;27247;48.020;16.720;2023-05-16T20:07:58;99236.38;;;12.30;100.00
41515;BME280;27247;48.020;16.720;2023-05-16T20:12:08;99239.69;;;12.32;100.00
41515;BME280;27247;48.020;16.720;2023-05-16T20:16:19;99239.47;;;12.27;100.00
41515;BME280;27247;48.020;16.720;2023-05-16T20:20:29;99236.59;;;12.28;100.00
41515;BME280;27247;48.020;16.720;2023-05-16T20:24:40;99237.63;;;12.27;100.00
41515;BME280;27247;48.020;16.720;2023-05-16T20:28:50;99234.31;;;12.25;100.00
41515;BME280;27247;48.020;16.720;2023-05-16T20:33:00;99225.25;;;12.33;100.00
41515;BME280;27247;48.020;16.720;2023-05-16T20:37:11;99221.97;;;12.31;100.00
41515;BME280;27247;48.020;16.720;2023-05-16T20:41:21;99217.44;;;12.31;100.00
41515;BME280;27247;48.020;16.720;2023-05-16T20:45:32;99218.47;;;12.30;100.00
41515;BME280;27247;48.020;16.720;2023-05-16T20:49:42;99217.44;;;12.31;100.00
41515;BME280;27247;48.020;16.720;2023-05-16T20:53:53;99236.38;;;12.30;100.00
41515;BME280;27247;48.020;16.720;2023-05-16T20:58:03;99239.06;;;12.30;100.00
41515;BME280;27247;48.020;16.720;2023-05-16T21:02:14;99244.41;;;12.30;100.00
41515;BME280;27247;48.020;16.720;2023-05-16T21:06:24;99243.59;;;12.29;100.00
41515;BME280;27247;48.020;16.720;2023-05-16T21:10:35;99243.59;;;12.29;100.00
41515;BME280;27247;48.020;16.720;2023-05-16T21:14:45;99229.78;;;12.26;100.00
41515;BME280;27247;48.020;16.720;2023-05-16T21:18:56;99233.47;;;12.18;100.00
41515;BME280;27247;48.020;16.720;2023-05-16T21:23:06;99240.69;;;12.18;100.00
41515;BME280;27247;48.020;16.720;2023-05-16T21:27:16;99248.28;;;12.14;100.00
41515;BME280;27247;48.020;16.720;2023-05-16T21:31:27;99257.97;;;12.15;100.00
41515;BME280;27247;48.020;16.720;2023-05-16T21:35:37;99267.84;;;12.14;100.00
41515;BME280;27247;48.020;16.720;2023-05-16T21:39:47;99253.03;;;12.19;100.00
41515;BME280;27247;48.020;16.720;2023-05-16T21:43:58;99255.72;;;12.19;100.00
41515;BME280;27247;48.020;16.720;2023-05-16T21:48:08;99260.88;;;12.20;100.00